createdAt,value
2023-04-15T00:00:05.638Z,10.80
2023-04-15T00:00:37.516Z,11.27
2023-04-15T00:01:09.960Z,12.82
2023-04-15T00:01:41.649Z,11.77
2023-04-15T00:02:18.740Z,10.85
2023-04-15T00:02:50.661Z,10.80
2023-04-15T00:03:23.002Z,12.02
2023-04-15T00:03:55.898Z,10.65
2023-04-15T00:04:28.446Z,10.63
2023-04-15T00:05:00.208Z,10.00
2023-04-15T00:05:32.579Z,11.25
2023-04-15T00:06:04.210Z,11.43
2023-04-15T00:06:37.614Z,11.50
2023-04-15T00:07:09.294Z,9.82
2023-04-15T00:07:41.396Z,9.73
2023-04-15T00:08:13.725Z,10.07
2023-04-15T00:08:49.181Z,10.85
2023-04-15T00:09:21.202Z,10.90
2023-04-15T00:09:55.252Z,10.98
2023-04-15T00:10:27.925Z,10.43
2023-04-15T00:11:03.220Z,9.63
2023-04-15T00:11:35.075Z,9.85
2023-04-15T00:12:06.842Z,10.05
2023-04-15T00:12:38.542Z,10.38
2023-04-15T00:13:10.441Z,10.48
2023-04-15T00:13:42.071Z,10.93
2023-04-15T00:14:13.908Z,9.63
2023-04-15T00:14:45.547Z,10.32
2023-04-15T00:15:17.553Z,11.05
2023-04-15T00:15:49.225Z,9.10
2023-04-15T00:16:21.385Z,10.38
2023-04-15T00:16:56.400Z,10.57
2023-04-15T00:17:28.202Z,10.70
2023-04-15T00:17:59.857Z,10.82
2023-04-15T00:18:31.784Z,11.55
2023-04-15T00:19:03.613Z,9.93
2023-04-15T00:19:35.325Z,9.77
2023-04-15T00:20:07.332Z,10.18
2023-04-15T00:20:39.001Z,10.52
2023-04-15T00:21:10.642Z,9.70
2023-04-15T00:21:42.327Z,9.82
2023-04-15T00:22:13.999Z,10.05
2023-04-15T00:22:46.451Z,10.60
2023-04-15T00:23:18.409Z,8.80
2023-04-15T00:23:52.757Z,9.45
2023-04-15T00:24:24.613Z,9.27
2023-04-15T00:24:56.513Z,9.95
2023-04-15T00:25:28.368Z,8.93
2023-04-15T00:25:59.958Z,8.43
2023-04-15T00:26:32.056Z,8.93
2023-04-15T00:27:04.387Z,9.27
2023-04-15T00:27:36.087Z,9.57
2023-04-15T00:28:08.659Z,9.20
2023-04-15T00:28:40.259Z,8.85
2023-04-15T00:29:11.838Z,9.07
2023-04-15T00:29:43.599Z,9.10
2023-04-15T00:30:15.239Z,8.80
2023-04-15T00:30:47.440Z,9.88
2023-04-15T00:31:19.159Z,10.07
2023-04-15T00:31:51.008Z,10.93
2023-04-15T00:32:22.691Z,9.40
2023-04-15T00:32:54.374Z,9.60
2023-04-15T00:33:26.023Z,8.57
2023-04-15T00:33:58.566Z,9.68
2023-04-15T00:34:30.538Z,9.20
2023-04-15T00:35:02.370Z,7.97
2023-04-15T00:35:34.741Z,9.98
2023-04-15T00:36:07.368Z,8.45
2023-04-15T00:36:39.007Z,9.25
2023-04-15T00:37:10.947Z,10.43
2023-04-15T00:37:44.809Z,10.70
2023-04-15T00:38:18.049Z,10.10
2023-04-15T00:38:49.619Z,8.70
2023-04-15T00:39:21.245Z,9.50
2023-04-15T00:39:52.931Z,8.70
2023-04-15T00:40:24.941Z,11.25
2023-04-15T00:40:56.685Z,9.07
2023-04-15T00:41:28.455Z,10.77
2023-04-15T00:42:00.544Z,9.27
2023-04-15T00:42:32.325Z,10.20
2023-04-15T00:43:04.500Z,9.00
2023-04-15T00:43:36.569Z,9.40
2023-04-15T00:44:08.427Z,9.23
2023-04-15T00:44:40.105Z,8.70
2023-04-15T00:45:12.254Z,9.23
2023-04-15T00:45:43.931Z,8.32
2023-04-15T00:46:17.736Z,9.00
2023-04-15T00:46:51.956Z,9.50
2023-04-15T00:47:23.882Z,8.52
2023-04-15T00:47:56.109Z,9.15
2023-04-15T00:48:28.321Z,8.93
2023-04-15T00:49:01.276Z,8.60
2023-04-15T00:49:33.236Z,8.98
2023-04-15T00:50:05.324Z,8.32
2023-04-15T00:50:36.917Z,8.60
2023-04-15T00:51:09.658Z,8.27
2023-04-15T00:51:41.555Z,9.32
2023-04-15T00:52:13.228Z,9.55
2023-04-15T00:52:44.802Z,8.02
2023-04-15T00:53:16.507Z,9.40
2023-04-15T00:53:48.093Z,11.00
2023-04-15T00:54:19.905Z,9.88
2023-04-15T00:54:51.613Z,8.60
2023-04-15T00:55:23.737Z,8.10
2023-04-15T00:55:56.170Z,9.13
2023-04-15T00:56:29.416Z,10.23
2023-04-15T00:57:01.828Z,9.07
2023-04-15T00:57:33.872Z,9.68
2023-04-15T00:58:05.495Z,8.85
2023-04-15T00:58:37.502Z,8.30
2023-04-15T00:59:09.618Z,9.23
2023-04-15T00:59:41.288Z,9.30
2023-04-15T01:00:13.266Z,8.77
2023-04-15T01:00:45.188Z,9.93
2023-04-15T01:01:17.660Z,9.45
2023-04-15T01:01:49.561Z,8.32
2023-04-15T01:02:21.910Z,9.95
2023-04-15T01:02:53.839Z,9.40
2023-04-15T01:03:25.918Z,10.13
2023-04-15T01:04:00.939Z,9.43
2023-04-15T01:04:32.842Z,8.95
2023-04-15T01:05:05.146Z,9.15
2023-04-15T01:05:36.970Z,9.70
2023-04-15T01:06:08.806Z,9.80
2023-04-15T01:06:41.177Z,8.75
2023-04-15T01:07:12.803Z,8.00
2023-04-15T01:07:44.453Z,9.35
2023-04-15T01:08:16.166Z,8.13
2023-04-15T01:08:47.800Z,8.95
2023-04-15T01:09:19.435Z,11.32
2023-04-15T01:09:51.315Z,9.05
2023-04-15T01:10:22.989Z,9.60
2023-04-15T01:10:57.108Z,8.68
2023-04-15T01:11:29.765Z,8.60
2023-04-15T01:12:02.657Z,9.63
2023-04-15T01:12:34.431Z,9.48
2023-04-15T01:13:06.028Z,8.93
2023-04-15T01:13:37.664Z,9.25
2023-04-15T01:14:10.253Z,11.40
2023-04-15T01:14:42.058Z,9.88
2023-04-15T01:15:13.709Z,9.38
2023-04-15T01:15:45.841Z,10.35
2023-04-15T01:16:18.224Z,10.35
2023-04-15T01:16:49.928Z,10.35
2023-04-15T01:17:21.753Z,10.48
2023-04-15T01:17:53.465Z,10.13
2023-04-15T01:18:25.371Z,9.35
2023-04-15T01:18:57.057Z,10.15
2023-04-15T01:19:29.000Z,13.60
2023-04-15T01:20:00.756Z,9.23
2023-04-15T01:20:32.909Z,9.80
2023-04-15T01:21:05.649Z,9.70
2023-04-15T01:21:41.027Z,9.30
2023-04-15T01:22:12.719Z,10.45
2023-04-15T01:22:46.062Z,9.48
2023-04-15T01:23:18.000Z,9.77
2023-04-15T01:23:52.388Z,9.10
2023-04-15T01:24:26.218Z,9.02
2023-04-15T01:25:08.425Z,9.57
2023-04-15T01:25:42.581Z,9.35
2023-04-15T01:26:14.927Z,9.50
2023-04-15T01:26:46.798Z,9.52
2023-04-15T01:27:18.515Z,8.90
2023-04-15T01:27:50.124Z,9.57
2023-04-15T01:28:21.965Z,9.85
2023-04-15T01:28:53.555Z,9.18
2023-04-15T01:29:25.256Z,9.57
2023-04-15T01:29:56.850Z,9.20
2023-04-15T01:30:28.450Z,9.75
2023-04-15T01:31:11.817Z,10.07
2023-04-15T01:31:53.206Z,10.52
2023-04-15T01:32:25.109Z,10.38
2023-04-15T01:32:56.812Z,9.25
2023-04-15T01:33:28.535Z,12.75
2023-04-15T01:34:00.223Z,10.15
2023-04-15T01:34:34.239Z,10.35
2023-04-15T01:35:07.838Z,9.70
2023-04-15T01:35:39.490Z,9.85
2023-04-15T01:36:11.264Z,10.85
2023-04-15T01:36:42.943Z,10.75
2023-04-15T01:37:14.583Z,10.60
2023-04-15T01:37:47.395Z,11.68
2023-04-15T01:38:19.375Z,10.10
2023-04-15T01:38:51.476Z,9.95
2023-04-15T01:39:23.514Z,9.40
2023-04-15T01:39:55.119Z,10.05
2023-04-15T01:40:26.736Z,10.00
2023-04-15T01:40:59.412Z,10.65
2023-04-15T01:41:31.097Z,11.65
2023-04-15T01:42:03.433Z,10.23
2023-04-15T01:42:36.762Z,9.80
2023-04-15T01:43:08.421Z,11.85
2023-04-15T01:43:40.227Z,11.27
2023-04-15T01:44:11.903Z,10.40
2023-04-15T01:44:43.520Z,10.45
2023-04-15T01:45:15.474Z,10.07
2023-04-15T01:45:47.113Z,11.07
2023-04-15T01:46:18.800Z,9.85
2023-04-15T01:46:50.482Z,9.90
2023-04-15T01:47:22.572Z,10.60
2023-04-15T01:47:54.516Z,10.70
2023-04-15T01:48:26.329Z,11.70
2023-04-15T01:48:58.152Z,10.45
2023-04-15T01:49:29.989Z,9.40
2023-04-15T01:50:01.823Z,10.27
2023-04-15T01:50:33.606Z,9.88
2023-04-15T01:51:05.776Z,10.77
2023-04-15T01:51:37.392Z,9.55
2023-04-15T01:52:09.276Z,12.25
2023-04-15T01:52:41.136Z,10.57
2023-04-15T01:53:12.728Z,10.35
2023-04-15T01:53:44.401Z,10.88
2023-04-15T01:54:16.332Z,10.18
2023-04-15T01:54:48.015Z,10.15
2023-04-15T01:55:19.678Z,9.68
2023-04-15T01:55:52.124Z,9.73
2023-04-15T01:56:26.781Z,10.90
2023-04-15T01:56:58.863Z,10.20
2023-04-15T01:57:30.775Z,10.57
2023-04-15T01:58:02.666Z,9.85
2023-04-15T01:58:34.259Z,9.98
2023-04-15T01:59:06.319Z,10.98
2023-04-15T01:59:38.347Z,11.43
2023-04-15T02:00:10.495Z,10.63
2023-04-15T02:00:42.916Z,10.80
2023-04-15T02:01:14.713Z,10.57
2023-04-15T02:01:46.662Z,11.00
2023-04-15T02:02:18.534Z,10.95
2023-04-15T02:02:50.734Z,11.88
2023-04-15T02:03:22.514Z,10.32
2023-04-15T02:03:54.207Z,10.05
2023-04-15T02:04:25.943Z,10.30
2023-04-15T02:04:58.104Z,10.82
2023-04-15T02:05:29.755Z,11.07
2023-04-15T02:06:01.330Z,11.20
2023-04-15T02:06:33.445Z,9.60
2023-04-15T02:07:05.075Z,9.52
2023-04-15T02:07:37.246Z,11.20
2023-04-15T02:08:09.584Z,10.20
2023-04-15T02:08:41.251Z,10.40
2023-04-15T02:09:12.979Z,10.52
2023-04-15T02:09:46.185Z,9.77
2023-04-15T02:10:17.990Z,9.35
2023-04-15T02:10:49.638Z,11.32
2023-04-15T02:11:21.294Z,9.90
2023-04-15T02:11:54.392Z,11.00
2023-04-15T02:12:26.106Z,11.05
2023-04-15T02:12:57.719Z,10.73
2023-04-15T02:13:29.742Z,10.68
2023-04-15T02:14:01.408Z,10.57
2023-04-15T02:14:33.060Z,11.30
2023-04-15T02:15:05.439Z,10.18
2023-04-15T02:15:37.218Z,11.48
2023-04-15T02:16:19.574Z,12.48
2023-04-15T02:16:51.716Z,9.60
2023-04-15T02:17:23.498Z,9.05
2023-04-15T02:17:55.526Z,9.85
2023-04-15T02:18:27.371Z,10.93
2023-04-15T02:19:00.469Z,10.95
2023-04-15T02:19:32.255Z,10.63
2023-04-15T02:20:08.666Z,10.77
2023-04-15T02:20:40.571Z,9.95
2023-04-15T02:21:12.146Z,10.10
2023-04-15T02:21:43.776Z,11.13
2023-04-15T02:22:18.669Z,9.80
2023-04-15T02:22:50.744Z,11.65
2023-04-15T02:23:22.339Z,10.50
2023-04-15T02:23:54.273Z,11.52
2023-04-15T02:24:26.488Z,11.20
2023-04-15T02:24:58.055Z,11.40
2023-04-15T02:25:29.674Z,11.52
2023-04-15T02:26:01.594Z,10.40
2023-04-15T02:26:33.535Z,11.13
2023-04-15T02:27:05.146Z,11.45
2023-04-15T02:27:36.804Z,12.77
2023-04-15T02:28:08.423Z,11.25
2023-04-15T02:28:40.120Z,12.35
2023-04-15T02:29:11.850Z,11.35
2023-04-15T02:29:44.808Z,12.18
2023-04-15T02:30:16.538Z,11.55
2023-04-15T02:30:52.959Z,12.25
2023-04-15T02:31:25.537Z,12.20
2023-04-15T02:31:57.236Z,11.35
2023-04-15T02:32:29.282Z,11.25
2023-04-15T02:33:01.810Z,10.73
2023-04-15T02:33:33.817Z,11.40
2023-04-15T02:34:05.552Z,12.07
2023-04-15T02:34:39.386Z,10.32
2023-04-15T02:35:11.988Z,11.38
2023-04-15T02:35:45.384Z,10.60
2023-04-15T02:36:17.306Z,10.38
2023-04-15T02:36:49.820Z,12.15
2023-04-15T02:37:21.465Z,11.23
2023-04-15T02:37:53.197Z,12.80
2023-04-15T02:38:25.014Z,10.48
2023-04-15T02:38:57.716Z,12.32
2023-04-15T02:39:29.358Z,11.45
2023-04-15T02:40:01.393Z,10.57
2023-04-15T02:40:33.409Z,11.75
2023-04-15T02:41:05.029Z,11.70
2023-04-15T02:41:36.767Z,10.75
2023-04-15T02:42:08.382Z,10.32
2023-04-15T02:42:41.248Z,10.55
2023-04-15T02:43:12.856Z,11.25
2023-04-15T02:43:44.453Z,14.02
2023-04-15T02:44:17.705Z,10.35
2023-04-15T02:44:49.341Z,10.63
2023-04-15T02:45:24.196Z,11.05
2023-04-15T02:45:55.941Z,12.38
2023-04-15T02:46:27.693Z,12.00
2023-04-15T02:46:59.422Z,11.38
2023-04-15T02:47:31.364Z,10.65
2023-04-15T02:48:06.438Z,9.95
2023-04-15T02:48:38.236Z,10.50
2023-04-15T02:49:11.005Z,10.65
2023-04-15T02:49:42.663Z,11.00
2023-04-15T02:50:15.225Z,11.23
2023-04-15T02:50:48.189Z,11.88
2023-04-15T02:51:22.756Z,11.32
2023-04-15T02:51:55.562Z,11.60
2023-04-15T02:52:27.592Z,11.00
2023-04-15T02:53:01.596Z,10.50
2023-04-15T02:53:33.431Z,9.25
2023-04-15T02:54:05.074Z,9.38
2023-04-15T02:54:36.886Z,9.88
2023-04-15T02:55:09.870Z,11.27
2023-04-15T02:55:42.899Z,9.73
2023-04-15T02:56:19.481Z,10.13
2023-04-15T02:56:52.252Z,10.13
2023-04-15T02:57:23.827Z,10.80
2023-04-15T02:57:56.013Z,10.48
2023-04-15T02:58:27.764Z,9.40
2023-04-15T02:58:59.613Z,11.63
2023-04-15T02:59:31.311Z,11.70
2023-04-15T03:00:04.810Z,10.07
2023-04-15T03:00:36.469Z,11.57
2023-04-15T03:01:11.131Z,10.70
2023-04-15T03:01:43.039Z,10.18
2023-04-15T03:02:14.856Z,9.95
2023-04-15T03:02:47.110Z,9.82
2023-04-15T03:03:19.179Z,10.45
2023-04-15T03:03:51.004Z,11.90
2023-04-15T03:04:22.725Z,10.40
2023-04-15T03:04:55.127Z,11.30
2023-04-15T03:05:27.118Z,10.20
2023-04-15T03:05:58.744Z,10.27
2023-04-15T03:06:31.000Z,10.52
2023-04-15T03:07:02.696Z,11.15
2023-04-15T03:07:34.320Z,11.07
2023-04-15T03:08:06.098Z,9.85
2023-04-15T03:08:37.749Z,9.73
2023-04-15T03:09:09.610Z,10.82
2023-04-15T03:09:41.366Z,10.55
2023-04-15T03:10:13.133Z,10.43
2023-04-15T03:10:44.745Z,11.43
2023-04-15T03:11:17.103Z,10.73
2023-04-15T03:11:48.705Z,10.02
2023-04-15T03:12:20.302Z,11.35
2023-04-15T03:12:51.881Z,11.63
2023-04-15T03:13:24.609Z,11.07
2023-04-15T03:13:56.352Z,10.20
2023-04-15T03:14:27.960Z,11.40
2023-04-15T03:15:00.482Z,12.32
2023-04-15T03:15:33.181Z,10.75
2023-04-15T03:16:05.829Z,11.60
2023-04-15T03:16:37.544Z,11.10
2023-04-15T03:17:09.249Z,10.75
2023-04-15T03:17:41.014Z,10.25
2023-04-15T03:18:12.795Z,11.07
2023-04-15T03:18:44.444Z,11.48
2023-04-15T03:19:16.688Z,12.32
2023-04-15T03:19:48.263Z,10.43
2023-04-15T03:20:20.453Z,12.10
2023-04-15T03:20:52.082Z,10.75
2023-04-15T03:21:24.068Z,12.13
2023-04-15T03:21:55.693Z,11.38
2023-04-15T03:22:27.324Z,10.75
2023-04-15T03:22:58.890Z,11.30
2023-04-15T03:23:31.687Z,10.50
2023-04-15T03:24:03.409Z,12.23
2023-04-15T03:24:35.063Z,11.68
2023-04-15T03:25:07.046Z,11.93
2023-04-15T03:25:38.656Z,9.13
2023-04-15T03:26:10.430Z,11.98
2023-04-15T03:26:42.056Z,12.50
2023-04-15T03:27:13.875Z,12.05
2023-04-15T03:27:45.630Z,10.98
2023-04-15T03:28:17.240Z,10.70
2023-04-15T03:28:48.948Z,10.13
2023-04-15T03:29:20.833Z,10.52
2023-04-15T03:29:52.414Z,10.63
2023-04-15T03:30:24.069Z,10.38
2023-04-15T03:30:55.973Z,11.13
2023-04-15T03:31:27.803Z,11.52
2023-04-15T03:31:59.489Z,12.23
2023-04-15T03:32:31.726Z,12.10
2023-04-15T03:33:03.501Z,11.82
2023-04-15T03:33:35.057Z,10.73
2023-04-15T03:34:06.759Z,11.40
2023-04-15T03:34:38.379Z,12.90
2023-04-15T03:35:10.276Z,11.70
2023-04-15T03:35:42.160Z,11.93
2023-04-15T03:36:13.834Z,10.02
2023-04-15T03:36:46.875Z,10.75
2023-04-15T03:37:18.485Z,11.07
2023-04-15T03:37:50.099Z,11.60
2023-04-15T03:38:21.843Z,10.60
2023-04-15T03:38:53.472Z,10.93
2023-04-15T03:39:25.108Z,11.80
2023-04-15T03:39:56.747Z,12.65
2023-04-15T03:40:28.439Z,11.70
2023-04-15T03:41:00.128Z,10.90
2023-04-15T03:41:32.940Z,11.13
2023-04-15T03:42:04.724Z,12.00
2023-04-15T03:42:36.407Z,10.32
2023-04-15T03:43:08.070Z,10.30
2023-04-15T03:43:39.632Z,11.63
2023-04-15T03:44:11.241Z,10.65
2023-04-15T03:44:42.925Z,12.38
2023-04-15T03:45:14.719Z,12.38
2023-04-15T03:45:46.417Z,12.75
2023-04-15T03:46:18.822Z,12.27
2023-04-15T03:46:50.966Z,11.48
2023-04-15T03:47:22.968Z,11.43
2023-04-15T03:47:54.616Z,12.13
2023-04-15T03:48:26.640Z,11.93
2023-04-15T03:48:58.786Z,11.40
2023-04-15T03:49:30.536Z,12.05
2023-04-15T03:50:02.135Z,11.93
2023-04-15T03:50:33.853Z,13.70
2023-04-15T03:51:05.973Z,12.40
2023-04-15T03:51:37.640Z,11.90
2023-04-15T03:52:09.320Z,13.57
2023-04-15T03:52:41.060Z,11.60
2023-04-15T03:53:12.874Z,11.02
2023-04-15T03:53:44.616Z,12.52
2023-04-15T03:54:16.346Z,12.35
2023-04-15T03:54:47.956Z,11.98
2023-04-15T03:55:20.304Z,11.43
2023-04-15T03:55:52.440Z,11.63
2023-04-15T03:56:24.206Z,11.90
2023-04-15T03:56:56.023Z,13.73
2023-04-15T03:57:27.675Z,12.40
2023-04-15T03:57:59.281Z,13.15
2023-04-15T03:58:30.866Z,13.00
2023-04-15T03:59:02.739Z,12.55
2023-04-15T03:59:34.566Z,13.07
2023-04-15T04:00:07.407Z,12.63
2023-04-15T04:00:39.878Z,13.73
2023-04-15T04:01:11.787Z,13.55
2023-04-15T04:01:43.583Z,12.52
2023-04-15T04:02:15.727Z,13.73
2023-04-15T04:02:47.493Z,12.38
2023-04-15T04:03:19.587Z,12.88
2023-04-15T04:03:51.709Z,13.00
2023-04-15T04:04:23.757Z,13.82
2023-04-15T04:04:55.432Z,14.38
2023-04-15T04:05:27.039Z,13.07
2023-04-15T04:05:58.692Z,12.80
2023-04-15T04:06:31.192Z,12.93
2023-04-15T04:07:02.817Z,12.77
2023-04-15T04:07:34.431Z,12.82
2023-04-15T04:08:06.517Z,12.77
2023-04-15T04:08:38.246Z,12.40
2023-04-15T04:09:09.878Z,12.65
2023-04-15T04:09:42.172Z,11.85
2023-04-15T04:10:13.806Z,12.40
2023-04-15T04:10:45.475Z,11.73
2023-04-15T04:11:17.246Z,11.90
2023-04-15T04:11:48.863Z,13.55
2023-04-15T04:12:20.608Z,12.80
2023-04-15T04:12:52.248Z,11.80
2023-04-15T04:13:24.004Z,12.10
2023-04-15T04:13:55.664Z,12.60
2023-04-15T04:14:29.829Z,12.55
2023-04-15T04:15:01.800Z,11.20
2023-04-15T04:15:33.809Z,12.38
2023-04-15T04:16:05.990Z,12.55
2023-04-15T04:16:37.832Z,13.02
2023-04-15T04:17:09.596Z,12.75
2023-04-15T04:17:41.537Z,11.95
2023-04-15T04:18:13.266Z,13.85
2023-04-15T04:18:44.929Z,12.55
2023-04-15T04:19:19.594Z,13.15
2023-04-15T04:19:51.181Z,11.77
2023-04-15T04:20:23.073Z,12.60
2023-04-15T04:20:55.483Z,11.80
2023-04-15T04:21:27.200Z,11.80
2023-04-15T04:21:58.948Z,14.23
2023-04-15T04:22:30.673Z,11.88
2023-04-15T04:23:02.290Z,12.52
2023-04-15T04:23:33.934Z,12.10
2023-04-15T04:24:05.733Z,12.52
2023-04-15T04:24:37.300Z,13.80
2023-04-15T04:25:10.303Z,12.40
2023-04-15T04:25:42.258Z,13.32
2023-04-15T04:26:13.921Z,11.15
2023-04-15T04:26:45.490Z,11.70
2023-04-15T04:27:17.082Z,12.25
2023-04-15T04:27:48.665Z,12.82
2023-04-15T04:28:20.254Z,11.52
2023-04-15T04:28:52.249Z,11.07
2023-04-15T04:29:23.943Z,12.57
2023-04-15T04:29:55.643Z,12.13
2023-04-15T04:30:27.329Z,11.32
2023-04-15T04:30:59.095Z,14.30
2023-04-15T04:31:31.066Z,12.60
2023-04-15T04:32:02.844Z,12.07
2023-04-15T04:32:34.530Z,11.43
2023-04-15T04:33:07.333Z,13.00
2023-04-15T04:33:39.068Z,11.95
2023-04-15T04:34:10.925Z,14.60
2023-04-15T04:34:42.498Z,11.80
2023-04-15T04:35:14.076Z,12.75
2023-04-15T04:35:45.744Z,12.63
2023-04-15T04:36:17.336Z,12.73
2023-04-15T04:36:48.912Z,11.82
2023-04-15T04:37:20.610Z,12.65
2023-04-15T04:37:52.564Z,12.35
2023-04-15T04:38:24.171Z,11.45
2023-04-15T04:38:56.193Z,11.68
2023-04-15T04:39:27.820Z,11.68
2023-04-15T04:39:59.433Z,13.98
2023-04-15T04:40:31.274Z,13.93
2023-04-15T04:41:02.997Z,11.98
2023-04-15T04:41:34.828Z,11.93
2023-04-15T04:42:06.481Z,13.25
2023-04-15T04:42:39.879Z,13.07
2023-04-15T04:43:11.876Z,11.73
2023-04-15T04:43:43.489Z,13.57
2023-04-15T04:44:15.119Z,13.48
2023-04-15T04:44:47.262Z,13.73
2023-04-15T04:45:18.932Z,12.90
2023-04-15T04:45:50.601Z,11.98
2023-04-15T04:46:22.284Z,12.43
2023-04-15T04:46:54.099Z,14.93
2023-04-15T04:47:25.914Z,12.38
2023-04-15T04:47:57.644Z,12.93
2023-04-15T04:48:29.260Z,14.90
2023-04-15T04:49:01.067Z,12.65
2023-04-15T04:49:33.035Z,12.02
2023-04-15T04:50:05.043Z,14.40
2023-04-15T04:50:36.990Z,13.23
2023-04-15T04:51:09.533Z,12.10
2023-04-15T04:51:41.257Z,13.57
2023-04-15T04:52:13.080Z,14.63
2023-04-15T04:52:44.861Z,13.20
2023-04-15T04:53:16.516Z,12.98
2023-04-15T04:53:48.172Z,12.73
2023-04-15T04:54:19.838Z,13.30
2023-04-15T04:54:51.709Z,12.75
2023-04-15T04:55:23.358Z,12.05
2023-04-15T04:55:55.212Z,12.70
2023-04-15T04:56:27.143Z,12.18
2023-04-15T04:56:58.947Z,13.05
2023-04-15T04:57:30.619Z,13.57
2023-04-15T04:58:02.406Z,11.68
2023-04-15T04:58:34.048Z,13.27
2023-04-15T04:59:07.074Z,14.27
2023-04-15T04:59:39.024Z,11.90
2023-04-15T05:00:11.149Z,13.52
2023-04-15T05:00:42.922Z,12.30
2023-04-15T05:01:14.623Z,12.60
2023-04-15T05:01:46.743Z,12.30
2023-04-15T05:02:19.134Z,12.43
2023-04-15T05:02:51.152Z,11.63
2023-04-15T05:03:23.172Z,11.93
2023-04-15T05:03:55.765Z,14.25
2023-04-15T05:04:27.462Z,12.85
2023-04-15T05:04:59.085Z,13.65
2023-04-15T05:05:30.816Z,13.95
2023-04-15T05:06:06.156Z,12.98
2023-04-15T05:06:37.800Z,13.85
2023-04-15T05:07:09.415Z,12.30
2023-04-15T05:07:40.991Z,13.45
2023-04-15T05:08:12.674Z,12.32
2023-04-15T05:08:44.339Z,14.20
2023-04-15T05:09:16.112Z,13.55
2023-04-15T05:09:47.922Z,12.45
2023-04-15T05:10:19.588Z,13.70
2023-04-15T05:10:51.250Z,14.43
2023-04-15T05:11:22.844Z,14.02
2023-04-15T05:11:54.598Z,14.40
2023-04-15T05:12:26.314Z,13.95
2023-04-15T05:12:58.200Z,13.25
2023-04-15T05:13:30.250Z,12.32
2023-04-15T05:14:02.484Z,13.65
2023-04-15T05:14:34.164Z,14.80
2023-04-15T05:15:06.952Z,14.98
2023-04-15T05:15:41.352Z,12.00
2023-04-15T05:16:12.995Z,14.77
2023-04-15T05:16:44.582Z,12.55
2023-04-15T05:17:16.221Z,13.57
2023-04-15T05:17:47.949Z,12.60
2023-04-15T05:18:19.715Z,12.05
2023-04-15T05:18:51.955Z,12.02
2023-04-15T05:19:23.648Z,12.07
2023-04-15T05:19:55.340Z,12.00
2023-04-15T05:20:26.987Z,11.65
2023-04-15T05:20:59.073Z,11.98
2023-04-15T05:21:31.789Z,12.05
2023-04-15T05:22:03.456Z,13.40
2023-04-15T05:22:35.255Z,12.45
2023-04-15T05:23:07.177Z,15.60
2023-04-15T05:23:38.977Z,12.13
2023-04-15T05:24:10.755Z,11.48
2023-04-15T05:24:42.435Z,13.65
2023-04-15T05:25:14.031Z,13.55
2023-04-15T05:25:45.770Z,12.18
2023-04-15T05:26:17.826Z,12.93
2023-04-15T05:26:49.523Z,12.63
2023-04-15T05:27:22.612Z,12.88
2023-04-15T05:27:54.181Z,13.15
2023-04-15T05:28:25.815Z,12.95
2023-04-15T05:28:57.477Z,13.35
2023-04-15T05:29:29.674Z,13.60
2023-04-15T05:30:01.385Z,14.25
2023-04-15T05:30:32.964Z,11.13
2023-04-15T05:31:04.719Z,13.52
2023-04-15T05:31:36.884Z,11.13
2023-04-15T05:32:08.596Z,13.40
2023-04-15T05:32:40.458Z,11.60
2023-04-15T05:33:12.132Z,12.50
2023-04-15T05:33:44.060Z,10.57
2023-04-15T05:34:18.514Z,12.95
2023-04-15T05:34:50.297Z,10.65
2023-04-15T05:35:22.376Z,11.70
2023-04-15T05:35:53.962Z,11.43
2023-04-15T05:36:26.116Z,11.23
2023-04-15T05:36:57.731Z,11.57
2023-04-15T05:37:29.369Z,11.55
2023-04-15T05:38:01.219Z,11.65
2023-04-15T05:38:32.976Z,12.13
2023-04-15T05:39:04.598Z,10.63
2023-04-15T05:39:36.176Z,11.18
2023-04-15T05:40:10.657Z,13.18
2023-04-15T05:40:42.588Z,12.68
2023-04-15T05:41:17.789Z,11.23
2023-04-15T05:41:51.315Z,11.57
2023-04-15T05:42:23.062Z,13.75
2023-04-15T05:42:54.709Z,13.38
2023-04-15T05:43:26.392Z,12.48
2023-04-15T05:43:58.065Z,12.48
2023-04-15T05:44:29.663Z,13.32
2023-04-15T05:45:01.675Z,14.82
2023-04-15T05:45:33.286Z,14.70
2023-04-15T05:46:05.091Z,14.70
2023-04-15T05:46:36.748Z,13.70
2023-04-15T05:47:08.832Z,14.82
2023-04-15T05:47:40.499Z,14.50
2023-04-15T05:48:12.161Z,14.45
2023-04-15T05:48:43.810Z,16.70
2023-04-15T05:49:15.615Z,18.13
2023-04-15T05:49:47.228Z,15.70
2023-04-15T05:50:18.877Z,17.98
2023-04-15T05:50:50.893Z,16.00
2023-04-15T05:51:22.619Z,17.52
2023-04-15T05:51:54.285Z,19.10
2023-04-15T05:52:26.382Z,17.40
2023-04-15T05:52:58.000Z,15.95
2023-04-15T05:53:29.624Z,18.00
2023-04-15T05:54:01.426Z,20.33
2023-04-15T05:54:33.569Z,21.30
2023-04-15T05:55:05.576Z,17.77
2023-04-15T05:55:37.264Z,18.20
2023-04-15T05:56:08.902Z,16.85
2023-04-15T05:56:40.617Z,15.93
2023-04-15T05:57:12.212Z,17.30
2023-04-15T05:57:43.825Z,19.90
2023-04-15T05:58:15.575Z,17.30
2023-04-15T05:58:47.231Z,19.38
2023-04-15T05:59:18.983Z,21.48
2023-04-15T05:59:52.836Z,21.88
2023-04-15T06:00:24.472Z,19.88
2023-04-15T06:00:56.706Z,18.65
2023-04-15T06:01:28.390Z,19.15
2023-04-15T06:02:00.215Z,19.65
2023-04-15T06:02:31.966Z,19.40
2023-04-15T06:03:04.096Z,20.65
2023-04-15T06:03:36.516Z,19.77
2023-04-15T06:04:08.264Z,19.95
2023-04-15T06:04:39.942Z,20.23
2023-04-15T06:05:12.064Z,19.33
2023-04-15T06:05:45.043Z,20.23
2023-04-15T06:06:16.717Z,20.67
2023-04-15T06:06:48.347Z,19.23
2023-04-15T06:07:20.020Z,18.58
2023-04-15T06:07:51.742Z,17.33
2023-04-15T06:08:23.360Z,17.80
2023-04-15T06:08:55.974Z,17.63
2023-04-15T06:09:28.985Z,19.67
2023-04-15T06:10:00.842Z,18.17
2023-04-15T06:10:36.703Z,15.95
2023-04-15T06:11:08.481Z,15.80
2023-04-15T06:11:41.434Z,16.05
2023-04-15T06:12:13.323Z,17.05
2023-04-15T06:12:47.419Z,14.32
2023-04-15T06:13:18.997Z,16.08
2023-04-15T06:13:50.602Z,17.50
2023-04-15T06:14:22.419Z,17.05
2023-04-15T06:14:54.029Z,17.55
2023-04-15T06:15:25.758Z,18.20
2023-04-15T06:15:57.443Z,22.10
2023-04-15T06:16:29.154Z,20.52
2023-04-15T06:17:00.793Z,21.83
2023-04-15T06:17:32.411Z,22.60
2023-04-15T06:18:04.205Z,22.52
2023-04-15T06:18:35.828Z,22.73
2023-04-15T06:19:07.436Z,23.48
2023-04-15T06:19:39.154Z,24.25
2023-04-15T06:20:11.558Z,23.30
2023-04-15T06:20:43.180Z,22.25
2023-04-15T06:21:15.740Z,23.85
2023-04-15T06:21:47.446Z,22.00
2023-04-15T06:22:19.083Z,24.23
2023-04-15T06:22:50.703Z,22.58
2023-04-15T06:23:22.404Z,22.23
2023-04-15T06:23:54.032Z,22.10
2023-04-15T06:24:25.774Z,22.52
2023-04-15T06:24:57.599Z,22.02
2023-04-15T06:25:29.192Z,23.15
2023-04-15T06:26:01.176Z,23.75
2023-04-15T06:26:32.772Z,20.77
2023-04-15T06:27:04.591Z,20.58
2023-04-15T06:27:36.264Z,17.15
2023-04-15T06:28:07.914Z,19.73
2023-04-15T06:28:39.538Z,18.25
2023-04-15T06:29:11.390Z,17.40
2023-04-15T06:29:43.051Z,18.05
2023-04-15T06:30:14.762Z,17.50
2023-04-15T06:30:46.379Z,19.30
2023-04-15T06:31:18.115Z,18.67
2023-04-15T06:31:50.242Z,17.15
2023-04-15T06:32:21.931Z,18.63
2023-04-15T06:32:54.866Z,18.77
2023-04-15T06:33:26.492Z,17.40
2023-04-15T06:33:58.087Z,19.35
2023-04-15T06:34:29.708Z,17.83
2023-04-15T06:35:01.440Z,20.25
2023-04-15T06:35:33.132Z,19.35
2023-04-15T06:36:04.946Z,17.73
2023-04-15T06:36:36.534Z,20.77
2023-04-15T06:37:10.096Z,19.50
2023-04-15T06:37:41.686Z,17.85
2023-04-15T06:38:14.468Z,17.13
2023-04-15T06:38:46.064Z,21.38
2023-04-15T06:39:17.689Z,19.45
2023-04-15T06:39:49.299Z,17.17
2023-04-15T06:40:21.054Z,20.05
2023-04-15T06:40:52.659Z,18.08
2023-04-15T06:41:24.395Z,20.80
2023-04-15T06:41:56.547Z,16.85
2023-04-15T06:42:28.225Z,18.92
2023-04-15T06:42:59.840Z,16.98
2023-04-15T06:43:31.481Z,18.73
2023-04-15T06:44:03.418Z,18.15
2023-04-15T06:44:35.232Z,18.10
2023-04-15T06:45:07.399Z,17.77
2023-04-15T06:45:39.617Z,18.50
2023-04-15T06:46:11.582Z,19.02
2023-04-15T06:46:43.207Z,17.02
2023-04-15T06:47:15.494Z,18.15
2023-04-15T06:47:47.211Z,19.30
2023-04-15T06:48:18.953Z,18.67
2023-04-15T06:48:50.531Z,18.48
2023-04-15T06:49:22.390Z,17.00
2023-04-15T06:49:54.477Z,19.38
2023-04-15T06:50:26.383Z,18.42
2023-04-15T06:50:58.894Z,18.00
2023-04-15T06:51:31.475Z,18.80
2023-04-15T06:52:04.479Z,17.33
2023-04-15T06:52:36.229Z,18.45
2023-04-15T06:53:07.869Z,20.60
2023-04-15T06:53:41.250Z,15.90
2023-04-15T06:54:12.905Z,14.63
2023-04-15T06:54:44.513Z,15.93
2023-04-15T06:55:16.458Z,15.82
2023-04-15T06:55:48.049Z,15.68